Time;durP1;ratioP1;P1;durP2;ratioP2;P2;SDS_P1;SDS_P2;PMS_P1;PMS_P2;Temp;Humidity;BMP_temperature;BMP_pressure;BME280_temperature;BME280_humidity;BME280_pressure;Samples;Min_cycle;Max_cycle;Signal;HPM_P1;HPM_P2
2023/10/23 00:02:18;;;;;;;9.48;3.60;;;;;;;11.17;77.85;98023.50;5080598;28;20047;-70
2023/10/23 00:04:43;;;;;;;6.20;2.95;;;;;;;11.07;77.91;98018.81;5096277;28;20082;-70
2023/10/23 00:07:08;;;;;;;8.27;3.10;;;;;;;11.04;78.06;98020.13;5114431;28;20496;-71
2023/10/23 00:09:34;;;;;;;8.77;2.97;;;;;;;11.00;78.01;98024.41;5114358;28;20023;-71
2023/10/23 00:11:59;;;;;;;7.18;2.72;;;;;;;10.93;78.18;98020.25;5095751;28;20110;-71
2023/10/23 00:14:24;;;;;;;8.55;2.85;;;;;;;10.96;78.25;98027.84;5114248;28;20031;-70
2023/10/23 00:16:50;;;;;;;10.48;3.17;;;;;;;10.92;78.73;98030.22;5114223;28;20513;-71
2023/10/23 00:19:15;;;;;;;9.75;3.33;;;;;;;10.74;78.92;98008.97;5096013;28;20620;-71
2023/10/23 00:21:42;;;;;;;5.95;2.70;;;;;;;10.89;78.48;98032.59;5095448;28;20024;-71
2023/10/23 00:24:07;;;;;;;10.85;3.13;;;;;;;10.86;78.58;98028.53;5114142;28;20024;-71
2023/10/23 00:26:33;;;;;;;9.15;2.83;;;;;;;10.66;78.76;98001.34;5114161;28;20047;-71
2023/10/23 00:29:00;;;;;;;9.15;3.00;;;;;;;10.70;78.95;98015.13;5075124;28;20027;-72
2023/10/23 00:31:25;;;;;;;6.50;2.78;;;;;;;10.75;78.96;98026.78;5071333;28;20035;-71
2023/10/23 00:33:50;;;;;;;8.20;2.78;;;;;;;10.68;78.72;98026.16;5095451;28;20070;-70
2023/10/23 00:36:16;;;;;;;5.13;2.42;;;;;;;10.74;78.73;98041.28;5113906;28;20039;-71
2023/10/23 00:38:41;;;;;;;8.95;2.70;;;;;;;10.70;78.85;98029.41;5078776;28;20092;-70
2023/10/23 00:41:07;;;;;;;9.93;2.78;;;;;;;10.66;78.81;98032.84;5113494;28;20031;-70
2023/10/23 00:43:34;;;;;;;6.93;2.95;;;;;;;10.62;78.69;98043.28;5113679;28;20520;-70
2023/10/23 00:46:01;;;;;;;9.27;3.17;;;;;;;10.59;78.70;98043.78;5113697;28;20039;-69
2023/10/23 00:48:27;;;;;;;10.27;3.90;;;;;;;10.53;78.67;98050.16;5095466;28;20046;-70
2023/10/23 00:50:58;;;;;;;9.90;3.78;;;;;;;10.51;78.65;98048.78;5078070;28;20628;-69
2023/10/23 00:53:27;;;;;;;9.85;4.00;;;;;;;10.47;78.89;98051.16;5095337;28;20027;-69
2023/10/23 00:55:53;;;;;;;8.90;4.10;;;;;;;10.45;78.97;98050.59;5078584;28;20038;-69
2023/10/23 00:58:19;;;;;;;7.22;4.05;;;;;;;10.40;79.16;98051.34;5078368;28;20117;-71
2023/10/23 01:00:47;;;;;;;8.73;4.63;;;;;;;10.39;79.48;98040.78;5085149;28;20066;-72
2023/10/23 01:03:12;;;;;;;9.70;4.50;;;;;;;10.31;79.47;98041.22;5067238;28;20086;-71
2023/10/23 01:05:38;;;;;;;10.52;4.75;;;;;;;10.33;79.57;98044.47;5094378;28;20110;-71
2023/10/23 01:08:04;;;;;;;9.02;4.00;;;;;;;10.27;79.60;98042.75;5095023;28;20137;-69
2023/10/23 01:10:29;;;;;;;9.48;4.40;;;;;;;10.29;79.60;98043.34;5076806;28;20104;-69
2023/10/23 01:12:56;;;;;;;11.95;4.20;;;;;;;10.18;79.95;98036.16;5112844;28;20208;-70
2023/10/23 01:15:22;;;;;;;10.50;4.25;;;;;;;10.17;79.62;98034.56;5094768;28;20022;-69
2023/10/23 01:17:48;;;;;;;9.13;4.10;;;;;;;10.19;79.71;98045.88;5078066;28;20035;-70
2023/10/23 01:20:14;;;;;;;13.40;4.60;;;;;;;10.17;79.65;98053.38;5078110;28;20401;-70
2023/10/23 01:22:39;;;;;;;5.90;3.38;;;;;;;10.02;79.54;98042.34;5094606;28;20031;-70
2023/10/23 01:25:15;;;;;;;7.88;4.05;;;;;;;9.98;78.83;98041.19;5077811;28;20035;-72
2023/10/23 01:27:40;;;;;;;10.07;3.92;;;;;;;9.93;79.50;98057.25;5077752;28;20532;-72
2023/10/23 01:30:08;;;;;;;8.18;3.72;;;;;;;9.99;79.26;98067.84;5076857;28;20027;-72
2023/10/23 01:32:33;;;;;;;9.23;3.78;;;;;;;9.92;79.28;98063.72;5088808;28;20441;-71
2023/10/23 01:34:59;;;;;;;6.57;3.72;;;;;;;9.83;79.18;98049.00;5094692;28;20015;-72
2023/10/23 01:37:24;;;;;;;8.18;4.30;;;;;;;9.89;78.94;98066.88;5094451;28;20038;-72
2023/10/23 01:39:49;;;;;;;8.30;3.67;;;;;;;9.87;79.58;98060.94;5112666;28;20478;-71
2023/10/23 01:42:15;;;;;;;6.50;3.17;;;;;;;9.82;79.32;98056.28;5093947;28;20555;-70
2023/10/23 01:44:40;;;;;;;6.82;3.58;;;;;;;9.77;79.79;98060.75;5094426;28;20098;-71
2023/10/23 01:47:06;;;;;;;7.85;3.50;;;;;;;9.75;79.38;98064.47;5094525;28;20058;-71
2023/10/23 01:49:31;;;;;;;8.35;3.10;;;;;;;9.74;79.30;98065.53;5094419;28;20039;-72
2023/10/23 01:51:56;;;;;;;11.35;4.20;;;;;;;9.65;79.44;98041.97;5094040;28;20028;-71
2023/10/23 01:54:22;;;;;;;9.63;3.13;;;;;;;9.65;79.52;98048.19;5074037;28;20099;-72
2023/10/23 01:56:48;;;;;;;7.93;3.30;;;;;;;9.66;79.69;98049.78;5106278;28;20066;-72
2023/10/23 01:59:13;;;;;;;8.77;3.42;;;;;;;9.55;79.32;98037.22;5094106;28;20450;-72
2023/10/23 02:01:39;;;;;;;6.50;3.45;;;;;;;9.56;79.55;98055.00;5093768;28;20123;-73
2023/10/23 02:04:06;;;;;;;9.05;3.97;;;;;;;9.54;79.45;98056.31;5107583;28;20386;-72
2023/10/23 02:06:31;;;;;;;9.57;3.60;;;;;;;9.51;79.79;98062.16;5112328;28;20067;-72
2023/10/23 02:08:57;;;;;;;8.63;3.13;;;;;;;9.42;79.74;98042.91;5076766;28;20043;-73
2023/10/23 02:11:22;;;;;;;9.80;3.25;;;;;;;9.47;79.68;98055.63;5073590;28;20410;-72
2023/10/23 02:13:47;;;;;;;7.07;3.17;;;;;;;9.45;79.82;98058.53;5076850;28;20023;-73
2023/10/23 02:16:13;;;;;;;8.30;3.03;;;;;;;9.42;79.56;98068.97;5094091;28;20105;-73
2023/10/23 02:18:38;;;;;;;6.80;2.97;;;;;;;9.37;79.57;98067.00;5093978;28;20031;-72
2023/10/23 02:21:03;;;;;;;7.60;2.78;;;;;;;9.35;79.33;98058.38;5093356;28;20118;-71
2023/10/23 02:23:30;;;;;;;8.45;3.30;;;;;;;9.35;79.49;98069.13;5093487;28;20019;-71
2023/10/23 02:25:56;;;;;;;7.53;2.80;;;;;;;9.32;79.69;98061.53;5093769;28;20379;-71
2023/10/23 02:28:21;;;;;;;7.90;3.15;;;;;;;9.27;79.77;98058.75;5093857;28;20093;-71
2023/10/23 02:30:46;;;;;;;7.63;3.38;;;;;;;9.28;79.81;98059.56;5094014;28;20126;-70
2023/10/23 02:33:12;;;;;;;10.10;3.00;;;;;;;9.11;79.60;98040.69;5093135;28;20030;-72
2023/10/23 02:35:37;;;;;;;8.50;2.90;;;;;;;9.17;79.47;98055.84;5112032;28;20386;-72
2023/10/23 02:38:03;;;;;;;7.40;3.03;;;;;;;9.17;80.05;98063.13;5093974;28;20457;-71
2023/10/23 02:40:30;;;;;;;9.85;3.45;;;;;;;8.98;79.87;98032.91;5093697;28;20041;-70
2023/10/23 02:42:55;;;;;;;8.32;3.38;;;;;;;9.03;79.80;98051.84;5076326;28;20483;-71
2023/10/23 02:45:20;;;;;;;7.05;2.72;;;;;;;9.07;79.40;98070.97;5111808;28;20081;-69
2023/10/23 02:47:46;;;;;;;7.00;2.80;;;;;;;9.03;79.75;98067.94;5059868;28;20102;-71
2023/10/23 02:50:11;;;;;;;6.65;3.03;;;;;;;9.01;79.89;98064.66;5076744;28;20035;-73
2023/10/23 02:52:36;;;;;;;9.05;2.88;;;;;;;8.98;78.87;98067.84;5093113;28;20027;-71
2023/10/23 02:55:03;;;;;;;7.97;2.90;;;;;;;8.92;79.64;98063.41;5093458;28;20467;-72
2023/10/23 02:57:28;;;;;;;8.23;2.90;;;;;;;8.95;79.21;98068.31;5111760;28;20016;-71
2023/10/23 02:59:55;;;;;;;6.32;2.45;;;;;;;8.95;79.40;98073.66;5084937;28;20122;-72
2023/10/23 03:02:21;;;;;;;6.63;2.80;;;;;;;8.93;79.72;98073.09;5092231;28;20107;-72
2023/10/23 03:04:46;;;;;;;7.07;3.17;;;;;;;8.87;79.69;98065.97;5066786;28;20116;-72
2023/10/23 03:07:11;;;;;;;6.47;2.70;;;;;;;8.80;79.69;98073.34;5075080;28;20500;-72
2023/10/23 03:09:37;;;;;;;6.38;2.80;;;;;;;8.85;79.46;98078.81;5076419;28;20093;-72
2023/10/23 03:12:03;;;;;;;7.30;2.83;;;;;;;8.82;79.74;98079.31;5092829;28;20024;-72
2023/10/23 03:14:29;;;;;;;10.18;2.78;;;;;;;8.79;79.86;98085.97;5073155;28;20028;-72
2023/10/23 03:16:54;;;;;;;6.30;2.50;;;;;;;8.71;79.63;98061.31;5091662;28;20032;-73
2023/10/23 03:19:22;;;;;;;5.05;2.88;;;;;;;8.74;79.19;98082.34;5093263;28;20036;-73
2023/10/23 03:21:48;;;;;;;6.25;2.70;;;;;;;8.73;79.50;98086.88;5093557;28;20094;-73
2023/10/23 03:24:13;;;;;;;9.90;2.72;;;;;;;8.62;79.73;98076.16;5093042;28;20055;-73
2023/10/23 03:26:38;;;;;;;9.95;2.88;;;;;;;8.64;79.79;98087.47;5072834;28;20048;-70
2023/10/23 03:29:06;;;;;;;5.93;2.60;;;;;;;8.62;79.82;98090.41;5085581;28;20039;-71
2023/10/23 03:31:32;;;;;;;6.63;3.20;;;;;;;8.61;79.72;98096.03;5092629;28;20081;-71
2023/10/23 03:33:58;;;;;;;6.65;2.78;;;;;;;8.57;79.44;98097.53;5112384;28;20548;-71
2023/10/23 03:36:24;;;;;;;7.63;3.15;;;;;;;8.51;79.53;98085.03;5114988;28;20563;-71
2023/10/23 03:38:49;;;;;;;3.88;2.50;;;;;;;8.50;79.72;98091.44;5096610;28;20035;-72
2023/10/23 03:41:14;;;;;;;6.03;2.78;;;;;;;8.40;79.87;98086.69;5096517;28;20027;-72
2023/10/23 03:43:40;;;;;;;9.27;3.50;;;;;;;8.43;79.70;98096.13;5096543;28;20424;-71
2023/10/23 03:46:07;;;;;;;11.18;3.95;;;;;;;8.43;79.41;98098.81;5076293;28;20024;-71
2023/10/23 03:48:36;;;;;;;8.05;3.72;;;;;;;8.35;79.63;98100.78;5107056;28;20038;-71
2023/10/23 03:51:02;;;;;;;7.22;3.70;;;;;;;8.34;79.81;98104.53;5095646;28;20031;-71
2023/10/23 03:53:27;;;;;;;5.03;2.90;;;;;;;8.34;80.01;98115.25;5096556;28;20104;-71
2023/10/23 03:55:53;;;;;;;4.38;2.85;;;;;;;8.38;80.00;98112.13;5095180;28;20098;-72
2023/10/23 03:58:18;;;;;;;8.65;3.30;;;;;;;8.37;80.29;98107.78;5114070;28;20027;-71
2023/10/23 04:00:43;;;;;;;9.15;3.50;;;;;;;8.37;80.00;98107.78;5114013;28;20466;-71
2023/10/23 04:03:11;;;;;;;5.63;3.00;;;;;;;8.41;80.72;98114.31;5114078;28;20040;-71
2023/10/23 04:05:42;;;;;;;11.63;3.70;;;;;;;8.47;81.02;98100.00;5096138;28;20019;-71
2023/10/23 04:08:08;;;;;;;13.30;3.47;;;;;;;8.44;81.23;98100.44;5096159;28;20039;-71
2023/10/23 04:10:33;;;;;;;13.05;3.80;;;;;;;8.41;81.79;98090.16;5095984;28;20032;-71
2023/10/23 04:12:59;;;;;;;9.65;3.75;;;;;;;8.36;82.68;98104.28;5113820;28;20032;-71
2023/10/23 04:15:24;;;;;;;5.95;3.60;;;;;;;8.34;83.14;98104.53;5114302;28;20423;-71
2023/10/23 04:17:50;;;;;;;8.52;3.88;;;;;;;8.28;83.21;98102.75;5095843;28;20035;-71
2023/10/23 04:20:15;;;;;;;7.30;3.67;;;;;;;8.32;82.53;98108.50;5095690;28;20020;-71
2023/10/23 04:22:42;;;;;;;9.07;4.45;;;;;;;8.27;83.10;98097.63;5113966;28;20035;-71
2023/10/23 04:25:07;;;;;;;8.63;4.03;;;;;;;8.15;83.20;98091.41;5097808;28;20015;-74
2023/10/23 04:27:33;;;;;;;9.27;4.07;;;;;;;8.19;83.82;98111.38;5114037;28;20040;-72
2023/10/23 04:30:01;;;;;;;9.48;4.13;;;;;;;8.17;84.00;98100.03;5095442;28;20051;-72
2023/10/23 04:32:27;;;;;;;8.50;3.63;;;;;;;8.21;83.80;98107.38;5082306;28;20029;-72
2023/10/23 04:34:52;;;;;;;11.02;3.90;;;;;;;8.24;83.86;98098.88;5095574;28;20022;-73
2023/10/23 04:37:18;;;;;;;8.57;3.70;;;;;;;8.07;84.72;98079.16;5095664;28;20043;-72
2023/10/23 04:39:43;;;;;;;9.25;4.00;;;;;;;8.26;84.24;98102.19;5095445;28;20038;-74
2023/10/23 04:42:08;;;;;;;12.45;3.75;;;;;;;8.20;84.28;98092.34;5094790;28;20435;-73
2023/10/23 04:44:34;;;;;;;10.70;4.13;;;;;;;8.28;84.06;98089.34;5113307;28;20073;-73
2023/10/23 04:46:59;;;;;;;8.73;3.92;;;;;;;8.11;84.84;98077.66;5113684;28;20513;-72
2023/10/23 04:49:25;;;;;;;12.20;4.25;;;;;;;8.20;84.66;98097.72;5112547;28;20031;-72
2023/10/23 04:51:50;;;;;;;11.48;4.70;;;;;;;8.10;85.15;98100.13;5093871;28;20121;-73
2023/10/23 04:54:16;;;;;;;8.48;4.13;;;;;;;8.09;84.91;98100.38;5094226;28;20034;-73
2023/10/23 04:56:41;;;;;;;12.73;4.10;;;;;;;8.16;84.63;98096.56;5094007;28;20046;-72
2023/10/23 04:59:07;;;;;;;10.95;4.50;;;;;;;8.14;84.59;98101.34;5093898;28;20039;-72
2023/10/23 05:01:33;;;;;;;12.38;4.65;;;;;;;8.21;84.92;98096.66;5111664;28;20426;-72
2023/10/23 05:03:58;;;;;;;12.13;4.65;;;;;;;8.19;85.02;98090.72;5094356;28;20028;-72
2023/10/23 05:06:27;;;;;;;9.02;4.20;;;;;;;8.08;84.30;98071.91;5095126;28;20027;-71
2023/10/23 05:08:53;;;;;;;10.77;4.20;;;;;;;8.22;84.52;98087.56;5095476;28;20033;-71
2023/10/23 05:11:18;;;;;;;10.30;4.25;;;;;;;8.09;84.56;98071.72;5094443;28;20517;-71
2023/10/23 05:13:46;;;;;;;7.85;3.90;;;;;;;8.14;84.77;98074.50;5095045;28;20019;-71
2023/10/23 05:16:12;;;;;;;13.70;4.32;;;;;;;8.23;84.48;98091.91;5096590;28;20031;-72
2023/10/23 05:18:38;;;;;;;9.93;4.10;;;;;;;8.21;84.53;98083.25;5094932;28;20081;-71
2023/10/23 05:21:11;;;;;;;15.85;4.38;;;;;;;8.27;84.25;98079.69;5074072;28;20458;-71
2023/10/23 05:23:40;;;;;;;10.32;4.05;;;;;;;8.25;84.36;98087.13;5099281;28;20047;-72
2023/10/23 05:26:07;;;;;;;12.20;6.30;;;;;;;8.16;83.83;98085.00;5112666;28;20055;-71
2023/10/23 05:28:33;;;;;;;13.02;5.18;;;;;;;7.96;83.08;98077.25;5112776;28;20440;-71
2023/10/23 05:30:58;;;;;;;14.57;4.80;;;;;;;7.78;82.81;98077.34;5121866;22;20028;-70
2023/10/23 05:33:24;;;;;;;7.20;3.58;;;;;;;7.78;82.66;98082.72;5075093;28;20042;-69
2023/10/23 05:35:49;;;;;;;8.85;5.32;;;;;;;7.74;82.10;98092.25;5077667;28;20024;-70
2023/10/23 05:38:14;;;;;;;12.05;4.97;;;;;;;7.60;82.12;98080.09;5062383;28;20059;-69
2023/10/23 05:40:40;;;;;;;11.50;4.95;;;;;;;7.48;81.65;98076.56;5090839;28;20036;-69
2023/10/23 05:43:05;;;;;;;9.43;4.57;;;;;;;7.52;81.88;98089.25;5066871;28;20465;-69
2023/10/23 05:45:31;;;;;;;5.03;3.63;;;;;;;7.52;82.26;98094.63;5053846;28;20028;-71
2023/10/23 05:47:56;;;;;;;7.80;4.55;;;;;;;7.46;81.91;98084.84;5071724;28;20116;-70
2023/10/23 05:50:21;;;;;;;9.50;5.88;;;;;;;7.50;81.99;98102.06;5071876;28;20028;-70
2023/10/23 05:52:47;;;;;;;16.20;12.02;;;;;;;7.50;82.21;98101.25;5060643;28;20071;-69
2023/10/23 05:55:12;;;;;;;11.93;8.48;;;;;;;7.52;82.14;98096.47;5078196;28;20098;-69
2023/10/23 05:57:37;;;;;;;9.32;7.18;;;;;;;7.48;81.46;98098.81;5078373;28;20043;-70
2023/10/23 06:00:03;;;;;;;14.93;9.48;;;;;;;7.38;82.52;98092.34;5054963;28;20024;-69
2023/10/23 06:02:32;;;;;;;15.13;9.52;;;;;;;7.45;81.89;98103.78;5057782;28;20119;-69
2023/10/23 06:04:58;;;;;;;16.08;9.40;;;;;;;7.44;83.00;98104.84;5071542;28;20156;-69
2023/10/23 06:07:23;;;;;;;12.23;6.78;;;;;;;7.44;82.42;98118.25;5071724;28;20522;-70
2023/10/23 06:09:49;;;;;;;10.32;7.25;;;;;;;7.45;82.05;98114.50;5091738;28;20024;-69
2023/10/23 06:12:14;;;;;;;7.20;5.78;;;;;;;7.42;82.19;98109.63;5091358;28;20517;-70
2023/10/23 06:14:40;;;;;;;10.50;5.20;;;;;;;7.48;82.38;98119.41;5059678;28;20040;-70
2023/10/23 06:17:05;;;;;;;9.27;4.75;;;;;;;7.48;81.61;98122.09;5035610;28;20480;-70
2023/10/23 06:19:34;;;;;;;8.45;4.70;;;;;;;7.39;82.59;98104.72;5061523;28;20024;-69
2023/10/23 06:21:59;;;;;;;8.25;5.10;;;;;;;7.55;81.93;98128.19;5053310;28;20032;-70
2023/10/23 06:24:26;;;;;;;12.88;5.88;;;;;;;7.43;82.21;98106.72;5053379;28;20035;-69
2023/10/23 06:26:51;;;;;;;9.07;5.07;;;;;;;7.52;81.75;98121.41;5035849;28;20545;-70
2023/10/23 06:29:17;;;;;;;11.52;6.03;;;;;;;7.52;82.40;98126.78;5058812;28;20032;-72
2023/10/23 06:31:42;;;;;;;9.40;5.90;;;;;;;7.48;82.73;98119.41;5070759;28;20127;-71
2023/10/23 06:34:07;;;;;;;9.80;6.15;;;;;;;7.41;82.26;98114.16;5091300;28;20077;-71
2023/10/23 06:36:33;;;;;;;8.88;4.50;;;;;;;7.42;83.05;98125.69;5091676;28;20032;-72
2023/10/23 06:38:58;;;;;;;9.82;5.07;;;;;;;7.45;82.97;98114.50;5056821;28;20550;-71
2023/10/23 06:41:24;;;;;;;9.85;4.40;;;;;;;7.51;82.09;98130.50;5046017;28;20040;-71
2023/10/23 06:43:49;;;;;;;10.07;4.75;;;;;;;7.44;82.43;98129.78;5044110;28;20024;-71
2023/10/23 06:46:15;;;;;;;11.48;5.05;;;;;;;7.51;82.45;98140.41;5056733;28;20479;-71
2023/10/23 06:48:44;;;;;;;9.30;5.88;;;;;;;7.57;81.89;98144.84;5091481;28;20103;-69
2023/10/23 06:51:10;;;;;;;9.38;5.15;;;;;;;7.61;81.91;98141.50;5084174;28;20036;-71
2023/10/23 06:53:35;;;;;;;13.82;4.90;;;;;;;7.62;81.91;98136.97;5033327;28;20104;-71
2023/10/23 06:56:01;;;;;;;12.77;5.43;;;;;;;7.55;82.68;98130.88;5056407;28;20115;-71
2023/10/23 06:58:26;;;;;;;8.77;4.65;;;;;;;7.68;82.00;98141.41;5062658;28;20392;-72
2023/10/23 07:00:52;;;;;;;11.07;4.53;;;;;;;7.69;82.28;98132.31;5051626;28;20086;-71
2023/10/23 07:03:17;;;;;;;8.52;4.72;;;;;;;7.80;82.42;98144.13;5051283;28;20067;-72
2023/10/23 07:05:43;;;;;;;8.98;4.57;;;;;;;7.93;82.55;98147.47;5069166;28;20041;-71
2023/10/23 07:08:09;;;;;;;12.07;5.00;;;;;;;7.94;83.12;98134.84;5061771;28;20073;-72
2023/10/23 07:10:35;;;;;;;11.15;4.50;;;;;;;8.10;82.79;98140.38;5092893;28;20028;-72
2023/10/23 07:13:00;;;;;;;9.90;4.80;;;;;;;8.19;82.82;98144.34;5091874;28;20526;-72
2023/10/23 07:15:26;;;;;;;10.68;4.68;;;;;;;8.28;82.75;98140.31;5058106;28;20094;-72
2023/10/23 07:17:52;;;;;;;11.65;5.22;;;;;;;8.35;82.96;98132.97;5063820;28;20423;-72
2023/10/23 07:20:17;;;;;;;9.00;4.57;;;;;;;8.44;83.69;98136.16;5062544;28;20047;-72
2023/10/23 07:22:43;;;;;;;9.00;4.70;;;;;;;8.57;83.85;98135.09;5062335;28;20039;-72
2023/10/23 07:25:12;;;;;;;9.40;4.85;;;;;;;8.55;83.52;98131.84;5056291;28;20036;-72
2023/10/23 07:27:40;;;;;;;10.95;4.50;;;;;;;8.57;84.11;98119.00;5083750;28;20032;-72
2023/10/23 07:30:06;;;;;;;8.30;4.43;;;;;;;8.68;83.82;98120.88;5058419;28;20079;-72
2023/10/23 07:32:34;;;;;;;9.93;4.70;;;;;;;8.78;84.26;98126.47;5055143;28;20028;-72
2023/10/23 07:35:00;;;;;;;10.32;4.85;;;;;;;8.88;84.50;98134.75;5074396;28;20056;-72
2023/10/23 07:37:27;;;;;;;12.07;5.32;;;;;;;8.98;84.32;98133.09;5079363;28;20078;-72
2023/10/23 07:39:52;;;;;;;12.38;5.60;;;;;;;9.05;84.71;98133.00;5079197;28;20530;-72
2023/10/23 07:42:18;;;;;;;9.82;5.60;;;;;;;9.10;84.85;98135.78;5083229;28;20027;-73
2023/10/23 07:44:43;;;;;;;9.45;4.65;;;;;;;9.01;84.85;98121.88;5055866;28;20181;-73
2023/10/23 07:47:08;;;;;;;6.55;4.55;;;;;;;9.09;85.12;98136.81;5087928;28;20058;-72
2023/10/23 07:49:34;;;;;;;7.13;4.85;;;;;;;8.98;85.25;98135.78;5043926;28;20040;-72
2023/10/23 07:51:59;;;;;;;8.30;4.45;;;;;;;8.97;85.47;98122.59;5077960;28;20070;-72
2023/10/23 07:54:25;;;;;;;9.73;5.47;;;;;;;9.06;85.00;98123.84;5065079;28;20038;-72
2023/10/23 07:56:50;;;;;;;10.57;5.03;;;;;;;9.01;85.22;98126.44;5059364;28;20090;-72
2023/10/23 07:59:18;;;;;;;9.95;4.60;;;;;;;9.11;85.25;98129.34;5076719;28;20110;-72
2023/10/23 08:01:44;;;;;;;11.65;5.03;;;;;;;9.22;84.92;98122.31;5071345;28;20028;-72
2023/10/23 08:04:09;;;;;;;9.85;4.95;;;;;;;9.32;84.68;98120.66;5074327;28;20032;-72
2023/10/23 08:06:34;;;;;;;9.73;5.03;;;;;;;9.24;84.89;98110.25;5069898;28;20035;-73
2023/10/23 08:09:00;;;;;;;10.57;4.80;;;;;;;9.37;84.92;98104.63;5026245;28;20051;-72
2023/10/23 08:11:25;;;;;;;9.10;4.45;;;;;;;9.54;84.53;98113.59;5035374;28;20021;-71
2023/10/23 08:13:50;;;;;;;8.05;4.18;;;;;;;9.49;84.84;98110.78;5055925;28;20119;-71
2023/10/23 08:16:16;;;;;;;8.63;4.20;;;;;;;9.59;84.71;98113.66;5073746;28;20017;-71
2023/10/23 08:18:41;;;;;;;10.57;4.88;;;;;;;9.68;84.67;98111.41;5073677;28;20432;-72
2023/10/23 08:21:15;;;;;;;9.10;4.40;;;;;;;9.70;84.22;98093.16;5054718;28;20108;-72
2023/10/23 08:23:41;;;;;;;13.75;4.85;;;;;;;9.83;84.51;98108.16;5035672;28;20148;-72
2023/10/23 08:26:07;;;;;;;10.15;4.70;;;;;;;9.88;84.56;98101.03;5062883;28;20031;-72
2023/10/23 08:28:32;;;;;;;13.32;4.38;;;;;;;10.03;84.24;98116.63;5070932;28;20039;-72
2023/10/23 08:30:58;;;;;;;9.65;4.90;;;;;;;10.14;84.14;98105.00;5061438;28;20046;-71
2023/10/23 08:33:23;;;;;;;12.85;4.78;;;;;;;10.16;84.21;98108.25;5057423;28;20036;-71
2023/10/23 08:35:49;;;;;;;7.93;4.35;;;;;;;10.28;83.80;98099.06;5063196;28;20024;-72
2023/10/23 08:38:14;;;;;;;10.02;4.45;;;;;;;10.35;83.13;98080.88;5037055;28;20035;-72
2023/10/23 08:40:40;;;;;;;12.50;4.40;;;;;;;10.39;83.49;98081.19;5085069;28;20373;-71
2023/10/23 08:43:05;;;;;;;9.70;4.80;;;;;;;10.55;83.94;98085.72;5072108;28;20036;-72
2023/10/23 08:45:31;;;;;;;10.15;3.70;;;;;;;10.70;83.92;98087.84;5073207;28;20036;-72
2023/10/23 08:47:57;;;;;;;9.27;4.00;;;;;;;10.69;83.14;98070.06;5073174;28;20043;-72
2023/10/23 08:50:23;;;;;;;9.32;4.07;;;;;;;10.86;83.63;98070.81;5073240;28;20027;-72
2023/10/23 08:52:56;;;;;;;8.50;3.70;;;;;;;10.96;83.27;98082.56;5072635;28;20043;-72
2023/10/23 08:55:25;;;;;;;8.40;3.83;;;;;;;11.15;82.52;98079.56;5091395;28;20031;-72
2023/10/23 08:57:52;;;;;;;7.85;3.80;;;;;;;11.06;82.80;98077.28;5058211;28;20035;-72
2023/10/23 09:00:20;;;;;;;6.72;3.30;;;;;;;11.28;82.58;98068.38;5070007;28;20108;-72
2023/10/23 09:02:45;;;;;;;10.15;4.07;;;;;;;11.33;82.34;98076.53;5023528;28;20020;-72
2023/10/23 09:05:11;;;;;;;9.70;4.03;;;;;;;11.40;82.20;98077.97;5049841;28;20036;-72
2023/10/23 09:07:38;;;;;;;8.38;4.50;;;;;;;11.46;82.12;98059.97;5066584;28;20059;-72
2023/10/23 09:10:04;;;;;;;10.50;4.57;;;;;;;11.57;81.52;98051.75;5086173;28;20115;-72
2023/10/23 09:12:31;;;;;;;11.88;4.97;;;;;;;11.71;81.68;98068.38;5074167;28;20107;-72
2023/10/23 09:14:56;;;;;;;13.55;4.93;;;;;;;11.80;81.39;98045.25;5068502;28;20048;-72
2023/10/23 09:17:23;;;;;;;8.32;4.45;;;;;;;11.92;81.13;98062.09;5059408;28;20129;-72
2023/10/23 09:19:48;;;;;;;9.13;4.07;;;;;;;11.97;81.02;98062.13;5073402;28;20114;-69
2023/10/23 09:22:14;;;;;;;12.60;4.20;;;;;;;12.03;81.08;98046.78;5062297;28;20526;-71
2023/10/23 09:24:39;;;;;;;11.85;4.20;;;;;;;12.14;80.92;98057.41;5074344;28;20590;-71
2023/10/23 09:27:06;;;;;;;10.48;4.28;;;;;;;12.28;80.67;98053.22;5092583;28;20074;-71
2023/10/23 09:29:32;;;;;;;7.90;3.78;;;;;;;12.33;80.41;98039.75;5057722;28;20527;-72
2023/10/23 09:31:58;;;;;;;8.90;3.85;;;;;;;12.37;80.27;98040.84;5068853;28;20534;-72
2023/10/23 09:34:24;;;;;;;9.05;4.13;;;;;;;12.55;79.64;98046.91;5056934;28;20037;-71
2023/10/23 09:36:51;;;;;;;8.02;3.75;;;;;;;12.65;79.15;98049.69;5059083;28;20029;-71
2023/10/23 09:39:17;;;;;;;8.38;3.58;;;;;;;12.80;79.25;98044.38;5056689;28;20032;-71
2023/10/23 09:41:45;;;;;;;12.05;3.85;;;;;;;12.77;78.28;98031.38;5091731;28;20024;-71
2023/10/23 09:44:12;;;;;;;7.63;3.83;;;;;;;12.89;78.07;98043.59;5074031;28;20094;-72
2023/10/23 09:46:38;;;;;;;7.30;3.40;;;;;;;13.09;78.30;98051.03;5074230;28;20027;-71
2023/10/23 09:49:05;;;;;;;7.68;3.42;;;;;;;13.18;77.74;98051.34;5074130;28;20078;-71
2023/10/23 09:51:37;;;;;;;7.53;3.30;;;;;;;13.30;77.01;98047.34;5091623;28;20036;-71
2023/10/23 09:54:16;;;;;;;6.72;3.58;;;;;;;13.44;77.03;98053.06;5092521;28;20375;-72
2023/10/23 09:57:03;;;;;;;13.95;3.80;;;;;;;13.50;76.78;98044.69;5092093;28;20495;-68
2023/10/23 09:59:42;;;;;;;8.65;4.40;;;;;;;13.55;76.93;98042.00;5059311;28;20033;-71
2023/10/23 10:02:09;;;;;;;9.38;4.50;;;;;;;13.61;76.87;98051.75;5056093;28;20052;-71
2023/10/23 10:04:46;;;;;;;10.35;4.60;;;;;;;13.72;76.19;98047.97;5053810;28;20076;-71
2023/10/23 10:07:16;;;;;;;10.38;4.80;;;;;;;13.78;76.43;98049.63;5071634;28;20039;-71
2023/10/23 10:09:42;;;;;;;7.05;4.45;;;;;;;13.63;76.59;98037.94;5053875;28;20090;-71
2023/10/23 10:12:08;;;;;;;8.13;4.45;;;;;;;13.61;76.12;98029.28;5039233;28;20458;-71
2023/10/23 10:14:34;;;;;;;9.68;4.97;;;;;;;13.88;75.89;98034.47;5073733;28;20043;-71
2023/10/23 10:17:00;;;;;;;6.90;4.28;;;;;;;14.05;75.51;98035.03;5073692;28;20057;-71
2023/10/23 10:19:26;;;;;;;8.48;4.68;;;;;;;14.19;75.53;98034.19;5091781;28;20031;-71
2023/10/23 10:22:12;;;;;;;8.73;4.22;;;;;;;14.23;74.56;98037.19;5090826;28;20119;-71
2023/10/23 10:24:38;;;;;;;8.57;4.07;;;;;;;14.31;74.41;98029.34;5073296;28;20036;-71
2023/10/23 10:27:03;;;;;;;6.47;3.70;;;;;;;14.50;73.80;98032.31;5073442;28;20032;-70
2023/10/23 10:29:30;;;;;;;7.72;3.53;;;;;;;14.58;73.15;98039.91;5073291;28;20040;-70
2023/10/23 10:32:06;;;;;;;6.10;3.97;;;;;;;14.62;72.77;98035.56;5072853;28;20032;-72
2023/10/23 10:34:52;;;;;;;;;;;;;;;14.43;73.37;98029.88;5057029;28;20112;-70
2023/10/23 10:37:17;;;;;;;8.68;3.67;;;;;;;14.66;73.25;98019.53;5052587;28;19970;-70
2023/10/23 10:39:52;;;;;;;9.75;3.67;;;;;;;14.83;72.25;98026.28;5053505;28;20060;-70
2023/10/23 10:42:30;;;;;;;7.85;3.75;;;;;;;14.83;72.39;98023.56;5070814;28;20114;-71
2023/10/23 10:44:57;;;;;;;9.30;3.30;;;;;;;14.90;71.96;98026.81;5078175;28;20107;-69
2023/10/23 10:47:46;;;;;;;7.85;3.60;;;;;;;14.88;71.56;98018.13;5065385;28;20023;-71
2023/10/23 10:50:12;;;;;;;6.80;3.47;;;;;;;14.82;72.11;98013.81;5057331;28;20075;-70
2023/10/23 10:52:43;;;;;;;8.85;3.60;;;;;;;15.01;71.22;98012.13;5036968;28;20029;-70
2023/10/23 10:55:10;;;;;;;7.50;3.63;;;;;;;15.07;71.50;98021.06;5082206;28;20103;-70
2023/10/23 10:57:45;;;;;;;5.53;3.17;;;;;;;15.14;70.80;98000.69;5067401;28;20039;-73
2023/10/23 11:00:11;;;;;;;6.18;3.28;;;;;;;15.28;70.63;97997.34;5080695;28;20035;-71
2023/10/23 11:02:37;;;;;;;11.13;3.78;;;;;;;15.30;69.80;97970.75;5063472;28;20101;-71
2023/10/23 11:05:09;;;;;;;8.20;3.40;;;;;;;15.30;69.47;97966.13;5047369;28;20037;-71
2023/10/23 11:07:35;;;;;;;10.15;3.15;;;;;;;15.51;69.34;97977.72;5065212;28;20035;-71
2023/10/23 11:10:01;;;;;;;6.85;2.90;;;;;;;15.46;68.85;97951.41;5055257;28;20513;-71
2023/10/23 11:12:26;;;;;;;9.25;2.75;;;;;;;15.61;68.44;97962.16;5094870;28;20039;-71
2023/10/23 11:14:51;;;;;;;5.45;2.70;;;;;;;15.68;68.60;97951.00;5077209;28;20467;-72
2023/10/23 11:17:17;;;;;;;6.65;3.28;;;;;;;15.83;68.93;97956.28;5095273;28;20128;-71
2023/10/23 11:19:43;;;;;;;7.80;3.30;;;;;;;15.77;69.14;97952.00;5094937;28;20020;-71
2023/10/23 11:22:10;;;;;;;10.32;3.42;;;;;;;15.82;68.72;97957.41;5094570;28;20119;-71
2023/10/23 11:24:35;;;;;;;11.23;3.42;;;;;;;15.87;68.66;97960.06;5076795;28;20028;-70
2023/10/23 11:27:01;;;;;;;7.47;2.90;;;;;;;15.94;68.67;97968.69;5075770;28;20668;-71
2023/10/23 11:29:26;;;;;;;7.75;3.40;;;;;;;16.08;68.05;97971.59;5075054;28;20111;-71
2023/10/23 11:31:52;;;;;;;5.90;3.00;;;;;;;16.22;67.80;97958.97;5069951;22;20046;-71
2023/10/23 11:34:18;;;;;;;7.03;3.08;;;;;;;16.36;67.17;97957.97;5046384;28;20039;-70